createdAt,value
2019-06-01T00:00:10.282Z,18.99
2019-06-01T00:00:57.454Z,18.87
2019-06-01T00:01:56.453Z,18.76
2019-06-01T00:02:57.411Z,18.81
2019-06-01T00:03:56.419Z,18.75
2019-06-01T00:04:56.413Z,18.69
2019-06-01T00:05:56.402Z,18.76
2019-06-01T00:07:01.420Z,18.62
2019-06-01T00:07:56.375Z,18.67
2019-06-01T00:08:56.364Z,18.73
2019-06-01T00:09:56.354Z,18.65
2019-06-01T00:10:56.355Z,18.66
2019-06-01T00:11:56.340Z,18.66
2019-06-01T00:12:56.319Z,18.67
2019-06-01T00:13:56.312Z,18.58
2019-06-01T00:14:56.297Z,18.58
2019-06-01T00:15:56.299Z,18.63
2019-06-01T00:16:56.289Z,18.54
2019-06-01T00:18:01.286Z,18.58
2019-06-01T00:18:56.254Z,18.57
2019-06-01T00:19:56.241Z,18.60
2019-06-01T00:20:56.233Z,18.57
2019-06-01T00:21:56.231Z,18.58
2019-06-01T00:22:56.207Z,18.66
2019-06-01T00:23:56.203Z,18.60
2019-06-01T00:24:56.189Z,18.58
2019-06-01T00:25:56.176Z,18.63
2019-06-01T00:26:56.179Z,18.51
2019-06-01T00:27:56.151Z,18.54
2019-06-01T00:29:01.173Z,18.57
2019-06-01T00:29:56.131Z,18.54
2019-06-01T00:30:56.117Z,18.58
2019-06-01T00:31:56.130Z,18.54
2019-06-01T00:32:56.097Z,18.55
2019-06-01T00:33:56.087Z,18.55
2019-06-01T00:34:56.074Z,18.52
2019-06-01T00:35:56.061Z,18.52
2019-06-01T00:36:56.052Z,18.51
2019-06-01T00:37:56.095Z,18.55
2019-06-01T00:38:56.033Z,18.51
2019-06-01T00:40:01.042Z,18.51
2019-06-01T00:40:56.009Z,18.52
2019-06-01T00:41:55.996Z,18.48
2019-06-01T00:42:55.995Z,18.48
2019-06-01T00:43:55.979Z,18.47
2019-06-01T00:44:55.965Z,18.50
2019-06-01T00:45:55.950Z,18.48
2019-06-01T00:46:55.936Z,18.44
2019-06-01T00:47:55.942Z,18.52
2019-06-01T00:48:55.921Z,18.51
2019-06-01T00:49:55.903Z,18.52
2019-06-01T00:51:00.918Z,18.55
2019-06-01T00:51:55.881Z,18.48
2019-06-01T00:52:55.880Z,18.50
2019-06-01T00:53:55.860Z,18.42
2019-06-01T00:54:55.850Z,18.54
2019-06-01T00:55:55.835Z,18.55
2019-06-01T00:56:55.823Z,18.47
2019-06-01T00:57:55.827Z,18.45
2019-06-01T00:58:55.800Z,18.42
2019-06-01T00:59:55.790Z,18.45
2019-06-01T01:00:55.781Z,18.44
2019-06-01T01:02:00.790Z,18.44
2019-06-01T01:02:55.775Z,18.44
2019-06-01T01:03:55.753Z,18.44
2019-06-01T01:04:55.736Z,18.51
2019-06-01T01:05:55.736Z,18.41
2019-06-01T01:06:55.714Z,18.42
2019-06-01T01:07:55.713Z,18.42
2019-06-01T01:08:55.693Z,18.47
2019-06-01T01:09:55.683Z,18.45
2019-06-01T01:10:55.677Z,18.41
2019-06-01T01:11:55.656Z,18.42
2019-06-01T01:13:00.676Z,18.45
2019-06-01T01:13:55.642Z,18.52
2019-06-01T01:14:55.626Z,18.47
2019-06-01T01:15:55.622Z,18.45
2019-06-01T01:16:55.808Z,18.52
2019-06-01T01:17:56.148Z,18.45
2019-06-01T01:18:55.943Z,18.42
2019-06-01T01:19:56.013Z,18.44
2019-06-01T01:20:56.285Z,18.47
2019-06-01T01:21:56.333Z,18.45
2019-06-01T01:22:56.452Z,18.45
2019-06-01T01:24:00.550Z,18.37
2019-06-01T01:24:56.555Z,18.48
2019-06-01T01:25:56.587Z,18.48
2019-06-01T01:26:56.696Z,18.35
2019-06-01T01:27:55.497Z,18.36
2019-06-01T01:28:55.464Z,18.47
2019-06-01T01:29:55.453Z,18.47
2019-06-01T01:31:09.989Z,18.48
2019-06-01T01:31:57.367Z,18.42
2019-06-01T01:32:55.914Z,18.39
2019-06-01T01:33:55.532Z,18.42
2019-06-01T01:35:00.421Z,18.45
2019-06-01T01:35:55.869Z,18.42
2019-06-01T01:36:56.054Z,18.37
2019-06-01T01:37:55.942Z,18.39
2019-06-01T01:38:56.290Z,18.37
2019-06-01T01:39:56.277Z,18.33
2019-06-01T01:40:56.251Z,18.41
2019-06-01T01:41:56.332Z,18.37
2019-06-01T01:42:56.464Z,18.37
2019-06-01T01:43:56.348Z,18.41
2019-06-01T01:44:55.288Z,18.41
2019-06-01T01:46:00.303Z,18.36
2019-06-01T01:46:55.264Z,18.39
2019-06-01T01:47:55.253Z,18.42
2019-06-01T01:48:56.169Z,18.29
2019-06-01T01:49:56.105Z,18.32
2019-06-01T01:50:56.403Z,18.36
2019-06-01T01:51:55.461Z,18.33
2019-06-01T01:52:55.216Z,18.25
2019-06-01T01:53:55.197Z,18.30
2019-06-01T01:54:55.176Z,18.29
2019-06-01T01:55:55.271Z,18.32
2019-06-01T01:57:00.173Z,18.33
2019-06-01T01:57:55.471Z,18.32
2019-06-01T01:58:56.406Z,18.23
2019-06-01T01:59:55.394Z,18.15
2019-06-01T02:00:56.830Z,18.25
2019-06-01T02:01:55.097Z,18.14
2019-06-01T02:02:55.862Z,18.20
2019-06-01T02:03:55.503Z,18.17
2019-06-01T02:04:55.843Z,17.99
2019-06-01T02:05:55.051Z,17.96
2019-06-01T02:06:55.922Z,17.95
2019-06-01T02:08:00.468Z,17.95
2019-06-01T02:08:55.120Z,17.95
2019-06-01T02:09:55.270Z,17.93
2019-06-01T02:10:55.431Z,17.86
2019-06-01T02:11:55.426Z,17.89
2019-06-01T02:12:55.415Z,17.79
2019-06-01T02:13:55.640Z,17.84
2019-06-01T02:14:55.586Z,17.81
2019-06-01T02:15:56.142Z,17.79
2019-06-01T02:16:56.264Z,17.82
2019-06-01T02:17:56.011Z,17.87
2019-06-01T02:19:00.571Z,17.84
2019-06-01T02:19:56.012Z,17.79
2019-06-01T02:20:54.896Z,17.81
2019-06-01T02:21:54.888Z,17.84
2019-06-01T02:22:54.884Z,17.79
2019-06-01T02:23:54.941Z,17.81
2019-06-01T02:24:55.841Z,17.86
2019-06-01T02:25:54.926Z,17.86
2019-06-01T02:26:55.146Z,17.74
2019-06-01T02:27:55.079Z,17.81
2019-06-01T02:28:55.306Z,17.82
2019-06-01T02:29:59.854Z,17.74
2019-06-01T02:30:56.143Z,17.74
2019-06-01T02:31:54.844Z,17.68
2019-06-01T02:32:56.262Z,17.78
2019-06-01T02:33:56.342Z,17.63
2019-06-01T02:34:56.341Z,17.64
2019-06-01T02:35:56.167Z,17.62
2019-06-01T02:36:56.347Z,17.41
2019-06-01T02:37:56.373Z,17.38
2019-06-01T02:38:56.153Z,17.44
2019-06-01T02:39:56.659Z,17.34
2019-06-01T02:41:01.172Z,17.33
2019-06-01T02:41:55.019Z,17.25
2019-06-01T02:42:55.090Z,17.26
2019-06-01T02:43:54.825Z,17.18
2019-06-01T02:44:55.110Z,17.30
2019-06-01T02:45:56.202Z,17.16
2019-06-01T02:46:55.361Z,17.12
2019-06-01T02:47:55.346Z,17.12
2019-06-01T02:48:55.499Z,17.11
2019-06-01T02:49:55.620Z,17.07
2019-06-01T02:50:55.794Z,17.06
2019-06-01T02:51:59.579Z,17.08
2019-06-01T02:52:55.538Z,17.14
2019-06-01T02:53:55.605Z,17.04
2019-06-01T02:54:55.565Z,17.04
2019-06-01T02:55:55.730Z,16.96
2019-06-01T02:56:55.762Z,16.97
2019-06-01T02:57:54.489Z,17.04
2019-06-01T02:58:54.492Z,16.98
2019-06-01T02:59:54.473Z,17.00
2019-06-01T03:00:54.460Z,17.03
2019-06-01T03:01:58.191Z,16.88
2019-06-01T03:03:00.729Z,16.94
2019-06-01T03:03:54.421Z,16.85
2019-06-01T03:04:54.424Z,16.81
2019-06-01T03:05:54.399Z,16.79
2019-06-01T03:06:54.380Z,16.68
2019-06-01T03:07:54.385Z,16.81
2019-06-01T03:08:54.370Z,16.73
2019-06-01T03:09:54.380Z,16.68
2019-06-01T03:10:54.338Z,16.67
2019-06-01T03:11:54.344Z,16.58
2019-06-01T03:12:54.342Z,16.68
2019-06-01T03:14:00.336Z,16.76
2019-06-01T03:14:54.307Z,16.68
2019-06-01T03:15:54.300Z,16.58
2019-06-01T03:16:54.321Z,16.71
2019-06-01T03:17:54.262Z,16.58
2019-06-01T03:18:54.247Z,16.68
2019-06-01T03:19:54.252Z,16.71
2019-06-01T03:20:54.227Z,16.68
2019-06-01T03:21:54.211Z,16.66
2019-06-01T03:22:54.204Z,16.68
2019-06-01T03:23:54.214Z,16.70
2019-06-01T03:24:59.778Z,16.67
2019-06-01T03:25:54.174Z,16.70
2019-06-01T03:26:54.171Z,16.63
2019-06-01T03:27:54.222Z,16.68
2019-06-01T03:28:54.171Z,16.58
2019-06-01T03:29:54.147Z,16.56
2019-06-01T03:30:54.166Z,16.50
2019-06-01T03:31:54.116Z,16.56
2019-06-01T03:32:54.103Z,16.48
2019-06-01T03:33:54.106Z,16.53
2019-06-01T03:34:54.069Z,16.50
2019-06-01T03:35:59.093Z,16.58
2019-06-01T03:36:56.231Z,16.63
2019-06-01T03:37:54.045Z,16.63
2019-06-01T03:38:54.052Z,16.53
2019-06-01T03:39:54.021Z,16.53
2019-06-01T03:40:54.019Z,16.63
2019-06-01T03:41:54.001Z,16.60
2019-06-01T03:42:53.988Z,16.63
2019-06-01T03:43:54.010Z,16.68
2019-06-01T03:44:53.994Z,16.66
2019-06-01T03:45:53.962Z,16.68
2019-06-01T03:46:58.962Z,16.71
2019-06-01T03:47:53.929Z,16.60
2019-06-01T03:48:53.930Z,16.61
2019-06-01T03:49:53.920Z,16.56
2019-06-01T03:50:53.920Z,16.60
2019-06-01T03:51:53.887Z,16.49
2019-06-01T03:52:53.864Z,16.67
2019-06-01T03:53:53.875Z,16.57
2019-06-01T03:54:53.870Z,16.52
2019-06-01T03:55:53.882Z,16.60
2019-06-01T03:56:53.871Z,16.68
2019-06-01T03:57:58.869Z,16.70
2019-06-01T03:58:53.801Z,16.63
2019-06-01T03:59:53.793Z,16.68
2019-06-01T04:00:53.829Z,16.67
2019-06-01T04:01:53.783Z,16.75
2019-06-01T04:02:53.765Z,16.75
2019-06-01T04:03:53.773Z,16.66
2019-06-01T04:04:53.734Z,16.78
2019-06-01T04:05:53.743Z,16.76
2019-06-01T04:06:53.729Z,16.75
2019-06-01T04:07:53.699Z,16.76
2019-06-01T04:08:58.771Z,16.66
2019-06-01T04:09:53.682Z,16.76
2019-06-01T04:10:53.685Z,16.76
2019-06-01T04:11:53.669Z,16.75
2019-06-01T04:12:53.742Z,16.86
2019-06-01T04:13:53.638Z,16.85
2019-06-01T04:14:53.656Z,16.85
2019-06-01T04:15:53.612Z,16.85
2019-06-01T04:16:53.618Z,16.86
2019-06-01T04:17:53.606Z,16.82
2019-06-01T04:18:53.607Z,16.89
2019-06-01T04:19:58.590Z,16.88
2019-06-01T04:20:53.564Z,16.89
2019-06-01T04:21:53.580Z,16.91
2019-06-01T04:22:53.538Z,17.04
2019-06-01T04:23:53.535Z,17.00
2019-06-01T04:24:53.522Z,16.88
2019-06-01T04:25:53.502Z,16.89
2019-06-01T04:26:53.515Z,16.96
2019-06-01T04:27:53.481Z,16.97
2019-06-01T04:28:53.490Z,17.03
2019-06-01T04:29:53.472Z,16.96
2019-06-01T04:30:58.477Z,17.03
2019-06-01T04:31:53.461Z,16.93
2019-06-01T04:32:53.432Z,16.96
2019-06-01T04:33:53.417Z,17.14
2019-06-01T04:34:53.407Z,17.15
2019-06-01T04:35:53.388Z,17.08
2019-06-01T04:36:53.396Z,17.12
2019-06-01T04:37:53.364Z,17.16
2019-06-01T04:38:53.354Z,17.18
2019-06-01T04:39:53.345Z,17.25
2019-06-01T04:40:53.346Z,17.18
2019-06-01T04:41:58.374Z,17.25
2019-06-01T04:42:53.311Z,17.18
2019-06-01T04:43:53.300Z,17.28
2019-06-01T04:44:53.285Z,17.21
2019-06-01T04:45:53.294Z,17.25
2019-06-01T04:46:53.341Z,17.26
2019-06-01T04:47:53.305Z,17.34
2019-06-01T04:48:53.256Z,17.31
2019-06-01T04:49:53.236Z,17.31
2019-06-01T04:50:53.269Z,17.33
2019-06-01T04:51:53.233Z,17.33
2019-06-01T04:52:58.221Z,17.30
2019-06-01T04:53:53.208Z,17.28
2019-06-01T04:54:53.177Z,17.37
2019-06-01T04:55:53.165Z,17.33
2019-06-01T04:56:53.192Z,17.41
2019-06-01T04:57:53.157Z,17.49
2019-06-01T04:58:53.141Z,17.44
2019-06-01T04:59:53.128Z,17.46
2019-06-01T05:00:53.111Z,17.55
2019-06-01T05:01:53.125Z,17.58
2019-06-01T05:03:05.051Z,17.64
2019-06-01T05:03:59.144Z,17.56
2019-06-01T05:04:53.080Z,17.58
2019-06-01T05:05:53.061Z,17.75
2019-06-01T05:06:53.053Z,17.68
2019-06-01T05:07:53.547Z,17.74
2019-06-01T05:08:53.040Z,17.89
2019-06-01T05:09:53.015Z,17.79
2019-06-01T05:10:53.005Z,17.81
2019-06-01T05:11:52.991Z,17.84
2019-06-01T05:12:52.994Z,17.89
2019-06-01T05:13:52.977Z,17.93
2019-06-01T05:14:57.991Z,17.99
2019-06-01T05:15:52.972Z,18.05
2019-06-01T05:16:52.952Z,18.02
2019-06-01T05:17:52.949Z,18.17
2019-06-01T05:18:52.913Z,18.12
2019-06-01T05:19:52.915Z,18.10
2019-06-01T05:20:52.917Z,18.14
2019-06-01T05:21:52.883Z,18.17
2019-06-01T05:22:52.881Z,18.25
2019-06-01T05:23:52.901Z,18.36
2019-06-01T05:24:52.868Z,18.25
2019-06-01T05:25:57.861Z,18.42
2019-06-01T05:26:52.826Z,18.36
2019-06-01T05:27:52.826Z,18.44
2019-06-01T05:28:52.821Z,18.44
2019-06-01T05:29:52.797Z,18.45
2019-06-01T05:30:52.791Z,18.41
2019-06-01T05:31:52.776Z,18.50
2019-06-01T05:32:52.803Z,18.57
2019-06-01T05:33:52.757Z,18.63
2019-06-01T05:34:52.761Z,18.65
2019-06-01T05:35:52.726Z,18.60
2019-06-01T05:36:57.773Z,18.65
2019-06-01T05:37:52.727Z,18.69
2019-06-01T05:38:52.693Z,18.75
2019-06-01T05:39:52.690Z,18.78
2019-06-01T05:40:52.699Z,18.76
2019-06-01T05:41:52.661Z,18.88
2019-06-01T05:42:52.666Z,18.94
2019-06-01T05:43:52.696Z,18.95
2019-06-01T05:44:52.625Z,18.95
2019-06-01T05:45:52.620Z,18.95
2019-06-01T05:46:52.687Z,19.00
2019-06-01T05:47:57.672Z,19.06
2019-06-01T05:48:52.617Z,19.13
2019-06-01T05:49:52.566Z,19.07
2019-06-01T05:50:52.598Z,19.06
2019-06-01T05:51:52.546Z,19.13
2019-06-01T05:52:52.533Z,19.04
2019-06-01T05:53:52.558Z,19.14
2019-06-01T05:54:52.523Z,19.16
2019-06-01T05:55:52.514Z,19.18
2019-06-01T05:56:52.513Z,19.16
2019-06-01T05:57:52.482Z,19.26
2019-06-01T05:58:57.503Z,19.36
2019-06-01T05:59:52.463Z,19.41
2019-06-01T06:00:52.441Z,19.50
2019-06-01T06:01:52.478Z,19.54
2019-06-01T06:02:52.424Z,19.61
2019-06-01T06:03:52.436Z,19.61
2019-06-01T06:04:54.176Z,19.65
2019-06-01T06:05:52.391Z,19.63
2019-06-01T06:06:52.401Z,19.61
2019-06-01T06:07:52.401Z,19.71
2019-06-01T06:08:52.380Z,19.76
2019-06-01T06:09:57.359Z,19.83
2019-06-01T06:10:52.330Z,19.81
2019-06-01T06:11:54.060Z,19.87
2019-06-01T06:12:52.312Z,19.91
2019-06-01T06:13:52.318Z,19.99
2019-06-01T06:14:52.283Z,20.11
2019-06-01T06:15:52.275Z,20.38
2019-06-01T06:16:52.261Z,20.48
2019-06-01T06:17:52.256Z,20.55
2019-06-01T06:18:52.249Z,20.54
2019-06-01T06:19:52.230Z,20.66
2019-06-01T06:20:57.243Z,20.72
2019-06-01T06:21:52.206Z,20.50
2019-06-01T06:22:52.194Z,20.48
2019-06-01T06:23:52.209Z,20.42
2019-06-01T06:24:52.170Z,20.36
2019-06-01T06:25:52.163Z,20.31
2019-06-01T06:26:52.151Z,20.47
2019-06-01T06:27:52.153Z,20.76
2019-06-01T06:28:52.175Z,21.14
2019-06-01T06:29:52.124Z,21.54
2019-06-01T06:30:52.105Z,21.83
2019-06-01T06:31:57.120Z,22.00
2019-06-01T06:32:52.081Z,22.03
2019-06-01T06:33:56.532Z,22.00
2019-06-01T06:34:53.072Z,22.20
2019-06-01T06:35:52.049Z,22.17
2019-06-01T06:36:52.041Z,22.12
2019-06-01T06:37:52.031Z,22.02
2019-06-01T06:38:52.018Z,21.90
2019-06-01T06:39:52.032Z,21.91
2019-06-01T06:40:51.993Z,22.18
2019-06-01T06:41:52.003Z,22.73
2019-06-01T06:42:56.996Z,23.15
2019-06-01T06:43:51.991Z,23.17
2019-06-01T06:44:51.961Z,22.94
2019-06-01T06:45:51.952Z,22.49
2019-06-01T06:46:51.933Z,22.20
2019-06-01T06:47:51.925Z,21.92
2019-06-01T06:48:51.906Z,21.74
2019-06-01T06:49:51.910Z,21.42
2019-06-01T06:50:51.882Z,21.40
2019-06-01T06:51:51.882Z,21.35
2019-06-01T06:52:51.864Z,21.42
2019-06-01T06:53:56.871Z,21.38
2019-06-01T06:54:51.846Z,21.40
2019-06-01T06:55:51.832Z,21.46
2019-06-01T06:56:51.823Z,21.35
2019-06-01T06:57:51.809Z,21.27
2019-06-01T06:58:51.794Z,21.37
2019-06-01T06:59:51.802Z,21.37
2019-06-01T07:00:51.787Z,21.40
2019-06-01T07:01:51.761Z,21.43
2019-06-01T07:02:51.752Z,21.40
2019-06-01T07:03:51.751Z,21.46
2019-06-01T07:04:56.761Z,21.42
2019-06-01T07:05:51.722Z,21.43
2019-06-01T07:06:51.718Z,21.52
2019-06-01T07:07:51.699Z,21.65
2019-06-01T07:08:51.695Z,21.62
2019-06-01T07:09:51.716Z,21.67
2019-06-01T07:10:51.668Z,21.59
2019-06-01T07:11:51.662Z,21.68
2019-06-01T07:12:51.648Z,21.54
2019-06-01T07:13:51.653Z,21.58
2019-06-01T07:14:51.634Z,21.52
2019-06-01T07:15:56.649Z,21.53
2019-06-01T07:16:51.607Z,21.53
2019-06-01T07:17:51.604Z,21.46
2019-06-01T07:18:51.577Z,21.47
2019-06-01T07:19:51.596Z,21.61
2019-06-01T07:20:51.576Z,21.64
2019-06-01T07:21:51.547Z,21.59
2019-06-01T07:22:51.548Z,21.69
2019-06-01T07:23:51.528Z,21.79
2019-06-01T07:24:51.526Z,21.79
2019-06-01T07:25:51.522Z,21.83
2019-06-01T07:26:56.524Z,21.79
2019-06-01T07:27:51.502Z,21.90
2019-06-01T07:28:51.469Z,21.83
2019-06-01T07:29:51.488Z,21.83
2019-06-01T07:30:51.457Z,21.91
2019-06-01T07:31:51.439Z,21.92
2019-06-01T07:32:51.428Z,21.94
2019-06-01T07:33:51.471Z,21.94
2019-06-01T07:34:51.405Z,22.09
2019-06-01T07:35:51.406Z,21.99
2019-06-01T07:36:51.405Z,22.03
2019-06-01T07:37:56.396Z,22.09
2019-06-01T07:38:51.386Z,22.14
2019-06-01T07:39:51.353Z,22.17
2019-06-01T07:40:51.353Z,22.05
2019-06-01T07:41:51.423Z,22.20
2019-06-01T07:42:51.316Z,22.20
2019-06-01T07:43:51.305Z,22.18
2019-06-01T07:44:51.295Z,22.17
2019-06-01T07:45:51.299Z,22.10
2019-06-01T07:46:51.277Z,22.21
2019-06-01T07:47:51.261Z,22.27
2019-06-01T07:48:56.276Z,22.20
2019-06-01T07:49:51.237Z,22.28
2019-06-01T07:50:51.239Z,22.39
2019-06-01T07:51:51.241Z,22.39
2019-06-01T07:52:51.208Z,22.49
2019-06-01T07:53:51.194Z,22.39
2019-06-01T07:54:51.184Z,22.51
2019-06-01T07:55:51.186Z,22.55
2019-06-01T07:56:51.161Z,22.73
2019-06-01T07:57:51.153Z,22.79
2019-06-01T07:58:51.139Z,22.90
2019-06-01T07:59:56.167Z,22.86
2019-06-01T08:00:51.123Z,22.90
2019-06-01T08:01:51.168Z,22.91
2019-06-01T08:02:51.094Z,22.91
2019-06-01T08:03:51.086Z,22.97
2019-06-01T08:04:54.350Z,23.05
2019-06-01T08:05:51.087Z,23.04
2019-06-01T08:06:51.054Z,23.22
2019-06-01T08:07:51.039Z,23.31
2019-06-01T08:08:51.025Z,23.31
2019-06-01T08:09:51.031Z,23.40
2019-06-01T08:10:56.059Z,23.32
2019-06-01T08:11:50.996Z,23.35
2019-06-01T08:12:50.982Z,23.40
2019-06-01T08:13:50.970Z,23.46
2019-06-01T08:14:50.960Z,23.46
2019-06-01T08:15:50.948Z,23.55
2019-06-01T08:16:50.959Z,23.65
2019-06-01T08:17:50.925Z,23.78
2019-06-01T08:18:53.233Z,23.87
2019-06-01T08:19:52.083Z,23.85
2019-06-01T08:20:50.895Z,23.72
2019-06-01T08:21:55.923Z,23.70
2019-06-01T08:22:50.875Z,23.78
2019-06-01T08:23:50.861Z,23.78
2019-06-01T08:24:50.848Z,23.79
2019-06-01T08:25:50.839Z,23.80
2019-06-01T08:26:50.838Z,23.85
2019-06-01T08:27:50.824Z,23.83
2019-06-01T08:28:50.806Z,23.84
2019-06-01T08:29:50.792Z,23.80
2019-06-01T08:30:50.781Z,23.73
2019-06-01T08:31:55.501Z,23.76
2019-06-01T08:32:56.782Z,23.68
2019-06-01T08:33:50.761Z,23.70
2019-06-01T08:35:06.851Z,23.73
2019-06-01T08:35:51.725Z,23.75
2019-06-01T08:36:50.731Z,23.80
2019-06-01T08:37:50.705Z,23.84
2019-06-01T08:38:50.795Z,23.85
2019-06-01T08:39:50.688Z,23.84
2019-06-01T08:40:50.677Z,23.76
2019-06-01T08:41:50.682Z,23.79
2019-06-01T08:42:50.650Z,23.85
2019-06-01T08:43:55.663Z,23.83
2019-06-01T08:44:50.629Z,23.93
2019-06-01T08:45:50.619Z,23.87
2019-06-01T08:46:50.619Z,23.95
2019-06-01T08:47:50.595Z,24.00
2019-06-01T08:48:50.585Z,24.00
2019-06-01T08:49:50.575Z,24.15
2019-06-01T08:50:50.562Z,24.20
2019-06-01T08:51:50.575Z,24.22
2019-06-01T08:52:50.541Z,24.31
2019-06-01T08:53:50.529Z,24.32
2019-06-01T08:54:55.543Z,24.43
2019-06-01T08:55:50.507Z,24.40
2019-06-01T08:56:50.502Z,24.43
2019-06-01T08:57:50.508Z,24.49
2019-06-01T08:58:50.474Z,24.47
2019-06-01T08:59:50.465Z,24.49
2019-06-01T09:00:50.452Z,24.60
2019-06-01T09:01:50.449Z,24.58
2019-06-01T09:02:50.455Z,24.65
2019-06-01T09:03:50.419Z,24.61
2019-06-01T09:04:50.409Z,24.53
2019-06-01T09:05:55.420Z,24.57
2019-06-01T09:06:50.400Z,24.58
2019-06-01T09:07:50.386Z,24.67
2019-06-01T09:08:50.372Z,24.68
2019-06-01T09:09:50.352Z,24.76
2019-06-01T09:10:50.341Z,24.76
2019-06-01T09:11:50.331Z,24.83
2019-06-01T09:12:50.344Z,24.98
2019-06-01T09:13:52.346Z,25.05
2019-06-01T09:14:50.297Z,25.06
2019-06-01T09:15:50.288Z,25.20
2019-06-01T09:16:55.299Z,25.21
2019-06-01T09:17:50.281Z,25.20
2019-06-01T09:18:50.298Z,25.24
2019-06-01T09:19:50.256Z,25.27
2019-06-01T09:20:50.231Z,25.24
2019-06-01T09:21:50.276Z,25.35
2019-06-01T09:22:50.223Z,25.27
2019-06-01T09:23:50.199Z,25.32
2019-06-01T09:24:53.314Z,25.38
2019-06-01T09:25:50.178Z,25.35
2019-06-01T09:26:50.173Z,25.35
2019-06-01T09:27:55.456Z,25.36
2019-06-01T09:28:50.146Z,25.42
2019-06-01T09:29:50.141Z,25.38
2019-06-01T09:30:50.126Z,25.50
2019-06-01T09:31:50.112Z,25.52
2019-06-01T09:32:50.103Z,25.60
2019-06-01T09:33:50.099Z,25.57
2019-06-01T09:34:50.096Z,25.57
2019-06-01T09:35:56.020Z,25.60
2019-06-01T09:36:51.056Z,25.70
2019-06-01T09:37:50.053Z,25.80
2019-06-01T09:38:55.081Z,25.92
2019-06-01T09:39:50.027Z,25.94
2019-06-01T09:40:50.030Z,26.12
2019-06-01T09:41:50.005Z,26.40
2019-06-01T09:42:50.004Z,26.52
2019-06-01T09:43:49.991Z,26.88
2019-06-01T09:44:49.969Z,27.04
2019-06-01T09:45:53.159Z,26.99
2019-06-01T09:46:49.948Z,26.84
2019-06-01T09:47:49.941Z,26.92
2019-06-01T09:48:49.942Z,26.97
2019-06-01T09:49:54.944Z,27.02
2019-06-01T09:50:49.907Z,26.94
2019-06-01T09:51:49.894Z,26.92
2019-06-01T09:52:49.893Z,26.89
2019-06-01T09:53:49.913Z,26.88
2019-06-01T09:54:49.863Z,26.66
2019-06-01T09:55:49.863Z,26.52
2019-06-01T09:56:49.844Z,26.52
2019-06-01T09:57:49.830Z,26.60
2019-06-01T09:58:49.837Z,26.54
2019-06-01T09:59:49.818Z,26.66
2019-06-01T10:00:54.825Z,26.75
2019-06-01T10:01:49.808Z,26.75
2019-06-01T10:02:49.775Z,27.04
2019-06-01T10:03:49.793Z,27.18
2019-06-01T10:04:49.754Z,27.34
2019-06-01T10:06:01.433Z,27.44
2019-06-01T10:06:50.732Z,27.36
2019-06-01T10:07:49.721Z,27.31
2019-06-01T10:08:49.723Z,27.17
2019-06-01T10:09:49.700Z,27.18
2019-06-01T10:10:49.700Z,27.14
2019-06-01T10:11:54.724Z,27.12
2019-06-01T10:12:49.674Z,26.97
2019-06-01T10:13:49.673Z,26.82
2019-06-01T10:14:49.645Z,26.88
2019-06-01T10:15:49.639Z,26.82
2019-06-01T10:16:49.637Z,26.72
2019-06-01T10:17:49.612Z,26.62
2019-06-01T10:18:49.615Z,26.60
2019-06-01T10:19:49.590Z,26.65
2019-06-01T10:20:49.586Z,26.58
2019-06-01T10:21:49.569Z,26.62
2019-06-01T10:22:54.583Z,26.73
2019-06-01T10:23:50.052Z,26.80
2019-06-01T10:24:49.546Z,26.77
2019-06-01T10:25:49.525Z,26.70
2019-06-01T10:26:49.513Z,26.76
2019-06-01T10:27:49.508Z,26.80
2019-06-01T10:28:49.508Z,26.77
2019-06-01T10:29:49.484Z,26.75
2019-06-01T10:30:49.485Z,26.75
2019-06-01T10:31:49.502Z,26.80
2019-06-01T10:32:49.455Z,26.81
2019-06-01T10:33:54.500Z,26.80
2019-06-01T10:34:49.444Z,26.81
2019-06-01T10:35:49.421Z,26.85
2019-06-01T10:36:49.405Z,26.81
2019-06-01T10:37:49.431Z,26.54
2019-06-01T10:38:49.421Z,26.51
2019-06-01T10:39:49.390Z,26.43
2019-06-01T10:40:49.368Z,26.36
2019-06-01T10:41:49.360Z,26.33
2019-06-01T10:42:49.348Z,26.39
2019-06-01T10:43:49.337Z,26.76
2019-06-01T10:44:54.359Z,26.87
2019-06-01T10:45:49.317Z,26.85
2019-06-01T10:46:49.464Z,26.67
2019-06-01T10:47:49.295Z,26.55
2019-06-01T10:48:49.301Z,26.66
2019-06-01T10:49:49.276Z,26.85
2019-06-01T10:50:49.277Z,26.81
2019-06-01T10:51:49.272Z,26.91
2019-06-01T10:52:49.240Z,26.92
2019-06-01T10:53:50.120Z,26.94
2019-06-01T10:54:49.256Z,26.85
2019-06-01T10:55:54.228Z,26.87
2019-06-01T10:56:49.265Z,26.81
2019-06-01T10:57:49.196Z,26.87
2019-06-01T10:58:59.398Z,26.75
2019-06-01T10:59:50.168Z,26.80
2019-06-01T11:00:51.052Z,26.80
2019-06-01T11:01:49.151Z,26.91
2019-06-01T11:02:49.134Z,26.87
2019-06-01T11:03:49.140Z,26.81
2019-06-01T11:04:49.140Z,26.80
2019-06-01T11:05:49.117Z,26.91
2019-06-01T11:06:54.123Z,27.06
2019-06-01T11:07:49.081Z,27.12
2019-06-01T11:08:49.079Z,27.25
2019-06-01T11:09:49.094Z,27.36
2019-06-01T11:10:49.043Z,27.59
2019-06-01T11:11:49.031Z,28.36
2019-06-01T11:12:49.023Z,28.86
2019-06-01T11:13:49.013Z,29.48
2019-06-01T11:14:49.034Z,29.78
2019-06-01T11:15:49.013Z,30.20
2019-06-01T11:16:55.717Z,30.67
2019-06-01T11:17:54.997Z,30.82
2019-06-01T11:18:48.962Z,30.38
2019-06-01T11:19:48.944Z,29.78
2019-06-01T11:20:48.955Z,29.63
2019-06-01T11:21:48.942Z,29.41
2019-06-01T11:22:48.930Z,29.08
2019-06-01T11:23:48.908Z,29.53
2019-06-01T11:24:48.889Z,30.10
2019-06-01T11:25:48.898Z,30.61
2019-06-01T11:26:48.870Z,31.13
2019-06-01T11:27:48.865Z,31.48
2019-06-01T11:28:53.907Z,31.88
2019-06-01T11:29:51.553Z,31.96
2019-06-01T11:30:48.885Z,31.63
2019-06-01T11:31:48.842Z,32.01
2019-06-01T11:32:48.816Z,32.13
2019-06-01T11:33:48.804Z,32.30
2019-06-01T11:34:48.844Z,32.08
2019-06-01T11:35:48.871Z,32.47
2019-06-01T11:37:04.428Z,32.82
2019-06-01T11:37:49.765Z,33.07
2019-06-01T11:38:48.753Z,33.26
2019-06-01T11:39:48.748Z,33.32
2019-06-01T11:40:48.746Z,33.31
2019-06-01T11:41:53.746Z,33.45
2019-06-01T11:42:48.714Z,33.41
2019-06-01T11:43:48.698Z,33.54
2019-06-01T11:44:48.736Z,33.95
2019-06-01T11:45:48.697Z,34.08
2019-06-01T11:46:48.677Z,34.28
2019-06-01T11:47:48.657Z,34.43
2019-06-01T11:48:48.665Z,34.24
2019-06-01T11:49:48.641Z,33.18
2019-06-01T11:50:48.655Z,33.09
2019-06-01T11:51:48.727Z,33.45
2019-06-01T11:52:53.660Z,33.60
2019-06-01T11:53:48.604Z,33.01
2019-06-01T11:54:48.603Z,33.28
2019-06-01T11:55:48.609Z,33.51
2019-06-01T11:56:48.576Z,33.63
2019-06-01T11:57:48.588Z,33.45
2019-06-01T11:58:48.561Z,33.29
2019-06-01T11:59:48.632Z,33.56
2019-06-01T12:00:48.534Z,33.37
2019-06-01T12:01:48.575Z,33.45
2019-06-01T12:02:48.521Z,33.61
2019-06-01T12:03:53.536Z,33.88
2019-06-01T12:04:48.498Z,33.88
2019-06-01T12:05:48.521Z,33.95
2019-06-01T12:06:48.515Z,34.34
2019-06-01T12:07:48.482Z,34.47
2019-06-01T12:08:48.461Z,34.73
2019-06-01T12:09:48.447Z,34.94
2019-06-01T12:10:48.504Z,34.91
2019-06-01T12:11:48.485Z,34.89
2019-06-01T12:12:48.428Z,35.21
2019-06-01T12:13:48.507Z,35.44
2019-06-01T12:14:53.484Z,35.28
2019-06-01T12:15:48.388Z,34.94
2019-06-01T12:16:48.393Z,34.82
2019-06-01T12:17:48.381Z,34.62
2019-06-01T12:18:48.372Z,34.61
2019-06-01T12:19:48.365Z,34.40
2019-06-01T12:20:48.342Z,34.00
2019-06-01T12:21:48.339Z,33.94
2019-06-01T12:22:48.334Z,34.10
2019-06-01T12:23:48.338Z,33.84
2019-06-01T12:24:48.301Z,34.32
2019-06-01T12:25:53.323Z,34.65
2019-06-01T12:26:48.308Z,34.73
2019-06-01T12:27:48.401Z,34.61
2019-06-01T12:28:48.257Z,34.15
2019-06-01T12:29:51.811Z,33.54
2019-06-01T12:30:48.259Z,33.06
2019-06-01T12:31:48.296Z,32.81
2019-06-01T12:32:48.891Z,32.41
2019-06-01T12:33:48.801Z,31.92
2019-06-01T12:34:48.597Z,31.75
2019-06-01T12:35:48.263Z,31.61
2019-06-01T12:36:53.264Z,31.41
2019-06-01T12:38:02.976Z,31.14
2019-06-01T12:38:49.170Z,30.69
2019-06-01T12:39:52.202Z,30.05
2019-06-01T12:40:49.156Z,29.83
2019-06-01T12:41:48.144Z,29.85
2019-06-01T12:42:48.137Z,29.78
2019-06-01T12:43:48.140Z,29.52
2019-06-01T12:44:48.095Z,29.51
2019-06-01T12:46:04.877Z,29.49
2019-06-01T12:46:49.103Z,29.39
2019-06-01T12:47:57.678Z,29.30
2019-06-01T12:48:49.099Z,29.27
2019-06-01T12:49:48.314Z,29.33
2019-06-01T12:50:50.772Z,29.37
2019-06-01T12:51:48.962Z,29.36